Terminal Aerodrome Forecast
Issued by NWS

Current Version | Previous Version | Graphics & Text | Print | Product List | Glossary On
Versions: 1 2 3 4 5 6 7 8 9 10 11 12 13 14 15 16 17 18
000
FTUS41 KPBZ 192300
TAFMGW
TAF
KMGW 192328Z 2000/2024 21005KT P6SM OVC060
     FM200800 24008G15KT 6SM -SHSN OVC025
     FM201500 25008KT P6SM BKN035=

USA.gov is the U.S. government's official web portal to all federal, state and local government web resources and services.